Bonita Springs, FL (34133)

9:16 AM EST on February 28, 2015 (GMT -0500)
Citrus Park | Change Station
CLOSE
Current Station
Personal Weather Station
Location: Bonita Springs, FL
Elevation: 23 ft
Nearby Weather Stations

Elev 23 ft 26.37 °N, 81.75 °W | Updated 38 seconds ago

Overcast
Overcast
73.0 °F
Feels Like 73 °F
N
7.6
Wind Variable Wind from NE
Gusts 7.6 mph

Today
High -- | Low -- °F
--% Chance of Precip.
Yesterday
High -- | Low -- °F
Precip. -- in
6:51 AM 6:27 PM
Waxing Gibbous, 77% visible
Pressure 30.26 in
Visibility 10.0 miles
Clouds Mostly Cloudy 800 ft
Overcast 2100 ft
Heat Index 73 °F
Dew Point 67 °F
Humidity 82%
Rainfall 0.00 in
Snow Depth Not available.
UV 1 out of 12
Pollen 7.80 out of 12
Air Quality Not available.
Flu Activity Not available.
METAR KRSW 281353Z 05009KT 10SM BKN008 OVC021 21/18 A3026 RMK AO2 SLP245 T02110183

More Conditions Fewer Conditions

Pressure 30.26 in
Visibility 10.0 miles
Clouds Mostly Cloudy 800 ft
Overcast 2100 ft
Heat Index 73 °F
Dew Point 67 °F
Humidity 82%
Rainfall 0.00 in
Snow Depth Not available.
UV 1 out of 12
Pollen 7.80 out of 12
Air Quality Not available.
Flu Activity Not available.
METAR KRSW 281353Z 05009KT 10SM BKN008 OVC021 21/18 A3026 RMK AO2 SLP245 T02110183

More Conditions Fewer Conditions

10-Day Weather Forecast

Almanac

Astronomy

Feb. 28, 2015 Rise Set
Actual Time
Civil Twilight
Nautical Twilight
Astronomical Twilight
Moon
Length of Visible Light
Length of Day
Tomorrow will be .
, % of the Moon is Illuminated

Today's Extremes

State Highs State Lows

Community

WunderPhotos

Upload Photos

1,801,021 photos uploaded!

WunderBlogs® & News

Nearby

Air Quality

  Air Quality AQ Index Pollutant
Not available.

Snow Depth

Station Depth Elevation

Earthquake Activity

City Distance Mag. Time & Date
Minimum magnitude displayed is 2.5.

Coastal Water Temperatures

Place Temperature

Nearby Weather Stations